createdAt,value
2018-01-25T00:00:22.711Z,23.65
2018-01-25T00:01:22.702Z,23.57
2018-01-25T00:02:22.658Z,23.58
2018-01-25T00:03:22.649Z,23.58
2018-01-25T00:04:22.650Z,23.66
2018-01-25T00:05:22.632Z,23.61
2018-01-25T00:06:22.586Z,23.72
2018-01-25T00:07:22.586Z,23.72
2018-01-25T00:08:22.575Z,23.70
2018-01-25T00:09:22.605Z,23.72
2018-01-25T00:10:22.522Z,23.72
2018-01-25T00:11:22.524Z,23.69
2018-01-25T00:12:22.478Z,23.66
2018-01-25T00:13:22.491Z,23.58
2018-01-25T00:14:22.468Z,23.63
2018-01-25T00:15:22.438Z,23.63
2018-01-25T00:16:22.423Z,23.57
2018-01-25T00:17:22.422Z,23.57
2018-01-25T00:18:22.371Z,23.58
2018-01-25T00:19:22.348Z,23.61
2018-01-25T00:20:22.367Z,23.65
2018-01-25T00:21:22.321Z,23.60
2018-01-25T00:22:22.301Z,23.58
2018-01-25T00:23:22.307Z,23.60
2018-01-25T00:24:22.265Z,23.58
2018-01-25T00:25:22.273Z,23.66
2018-01-25T00:26:22.243Z,23.51
2018-01-25T00:27:22.213Z,23.55
2018-01-25T00:28:22.203Z,23.46
2018-01-25T00:29:22.176Z,23.51
2018-01-25T00:30:22.156Z,23.55
2018-01-25T00:31:22.147Z,23.54
2018-01-25T00:32:22.152Z,23.54
2018-01-25T00:33:22.102Z,23.54
2018-01-25T00:34:22.089Z,23.55
2018-01-25T00:35:22.095Z,23.51
2018-01-25T00:36:22.048Z,23.50
2018-01-25T00:37:22.064Z,23.53
2018-01-25T00:38:22.016Z,23.53
2018-01-25T00:39:22.028Z,23.54
2018-01-25T00:40:22.006Z,23.54
2018-01-25T00:41:21.959Z,23.53
2018-01-25T00:42:21.937Z,23.53
2018-01-25T00:43:21.953Z,23.50
2018-01-25T00:44:21.915Z,23.48
2018-01-25T00:45:21.888Z,23.43
2018-01-25T00:46:21.888Z,23.42
2018-01-25T00:47:21.853Z,23.40
2018-01-25T00:48:22.071Z,23.43
2018-01-25T00:49:21.836Z,23.43
2018-01-25T00:50:21.801Z,23.50
2018-01-25T00:51:21.793Z,23.51
2018-01-25T00:52:21.772Z,23.47
2018-01-25T00:53:21.789Z,23.40
2018-01-25T00:54:21.762Z,23.47
2018-01-25T00:55:21.710Z,23.39
2018-01-25T00:56:21.722Z,23.46
2018-01-25T00:57:21.702Z,23.50
2018-01-25T00:58:21.666Z,23.39
2018-01-25T00:59:21.670Z,23.48
2018-01-25T01:00:21.630Z,23.40
2018-01-25T01:01:21.605Z,23.39
2018-01-25T01:02:21.632Z,23.39
2018-01-25T01:03:21.572Z,23.38
2018-01-25T01:04:21.556Z,23.39
2018-01-25T01:05:21.561Z,23.42
2018-01-25T01:06:21.517Z,23.39
2018-01-25T01:07:21.510Z,23.40
2018-01-25T01:08:21.488Z,23.35
2018-01-25T01:09:21.490Z,23.39
2018-01-25T01:10:21.475Z,23.38
2018-01-25T01:11:21.431Z,23.50
2018-01-25T01:12:21.410Z,23.54
2018-01-25T01:13:21.418Z,23.54
2018-01-25T01:14:21.388Z,23.57
2018-01-25T01:15:21.371Z,23.54
2018-01-25T01:16:21.342Z,23.55
2018-01-25T01:17:21.321Z,23.60
2018-01-25T01:18:21.320Z,23.66
2018-01-25T01:19:21.299Z,23.54
2018-01-25T01:20:21.268Z,23.55
2018-01-25T01:21:21.248Z,23.55
2018-01-25T01:22:21.237Z,23.57
2018-01-25T01:23:21.231Z,23.51
2018-01-25T01:24:21.197Z,23.53
2018-01-25T01:25:21.183Z,23.57
2018-01-25T01:26:21.174Z,23.53
2018-01-25T01:27:21.147Z,23.54
2018-01-25T01:28:21.126Z,23.57
2018-01-25T01:29:21.139Z,23.58
2018-01-25T01:30:21.118Z,23.60
2018-01-25T01:31:21.071Z,23.60
2018-01-25T01:32:21.083Z,23.55
2018-01-25T01:33:21.045Z,23.58
2018-01-25T01:34:21.020Z,23.58
2018-01-25T01:35:21.007Z,23.50
2018-01-25T01:36:21.016Z,23.48
2018-01-25T01:37:20.998Z,23.54
2018-01-25T01:38:20.951Z,23.50
2018-01-25T01:39:20.950Z,23.48
2018-01-25T01:40:20.915Z,23.46
2018-01-25T01:41:20.894Z,23.46
2018-01-25T01:42:20.877Z,23.42
2018-01-25T01:43:20.889Z,23.28
2018-01-25T01:44:20.846Z,23.27
2018-01-25T01:45:20.824Z,23.20
2018-01-25T01:46:20.832Z,23.15
2018-01-25T01:47:20.788Z,23.07
2018-01-25T01:48:20.799Z,22.97
2018-01-25T01:49:20.751Z,23.01
2018-01-25T01:50:20.763Z,23.01
2018-01-25T01:51:20.745Z,23.01
2018-01-25T01:52:20.702Z,23.02
2018-01-25T01:53:20.708Z,22.98
2018-01-25T01:54:20.695Z,23.05
2018-01-25T01:55:20.647Z,23.01
2018-01-25T01:56:20.653Z,23.10
2018-01-25T01:57:20.610Z,23.09
2018-01-25T01:58:20.618Z,23.04
2018-01-25T01:59:20.597Z,23.09
2018-01-25T02:00:20.710Z,23.05
2018-01-25T02:01:20.548Z,23.10
2018-01-25T02:02:20.521Z,23.16
2018-01-25T02:03:20.499Z,23.10
2018-01-25T02:04:20.509Z,23.10
2018-01-25T02:05:20.464Z,23.10
2018-01-25T02:06:20.478Z,23.20
2018-01-25T02:07:20.435Z,23.22
2018-01-25T02:08:20.434Z,23.31
2018-01-25T02:09:20.419Z,23.33
2018-01-25T02:10:20.373Z,23.32
2018-01-25T02:11:20.380Z,23.32
2018-01-25T02:12:20.369Z,23.27
2018-01-25T02:13:20.318Z,23.28
2018-01-25T02:14:20.308Z,23.27
2018-01-25T02:15:20.283Z,23.22
2018-01-25T02:16:20.289Z,23.22
2018-01-25T02:17:20.248Z,23.15
2018-01-25T02:18:20.235Z,23.02
2018-01-25T02:19:20.224Z,23.07
2018-01-25T02:20:20.205Z,23.04
2018-01-25T02:21:20.205Z,23.01
2018-01-25T02:22:20.182Z,22.95
2018-01-25T02:23:20.140Z,23.00
2018-01-25T02:24:20.121Z,23.02
2018-01-25T02:25:20.112Z,23.02
2018-01-25T02:26:20.083Z,22.95
2018-01-25T02:27:20.064Z,22.90
2018-01-25T02:28:20.076Z,22.85
2018-01-25T02:29:20.028Z,22.83
2018-01-25T02:30:20.018Z,22.77
2018-01-25T02:31:19.996Z,22.73
2018-01-25T02:32:20.000Z,22.85
2018-01-25T02:33:19.955Z,22.90
2018-01-25T02:34:19.966Z,22.95
2018-01-25T02:35:19.922Z,23.05
2018-01-25T02:36:19.930Z,23.15
2018-01-25T02:37:19.913Z,23.04
2018-01-25T02:38:19.862Z,23.10
2018-01-25T02:39:19.858Z,23.23
2018-01-25T02:40:19.831Z,23.33
2018-01-25T02:41:19.820Z,23.35
2018-01-25T02:42:19.805Z,23.39
2018-01-25T02:43:19.779Z,23.35
2018-01-25T02:44:19.789Z,23.35
2018-01-25T02:45:19.751Z,23.33
2018-01-25T02:46:19.724Z,23.32
2018-01-25T02:47:19.711Z,23.28
2018-01-25T02:48:19.700Z,23.27
2018-01-25T02:49:19.677Z,23.31
2018-01-25T02:50:19.653Z,23.36
2018-01-25T02:51:19.641Z,23.28
2018-01-25T02:52:19.652Z,23.39
2018-01-25T02:53:19.602Z,23.28
2018-01-25T02:54:19.629Z,23.33
2018-01-25T02:55:19.594Z,23.32
2018-01-25T02:56:19.539Z,23.33
2018-01-25T02:57:19.548Z,23.33
2018-01-25T02:58:19.521Z,23.31
2018-01-25T02:59:19.486Z,23.32
2018-01-25T03:00:19.465Z,23.27
2018-01-25T03:01:19.453Z,23.19
2018-01-25T03:02:19.434Z,23.25
2018-01-25T03:03:19.444Z,23.20
2018-01-25T03:04:19.422Z,23.22
2018-01-25T03:05:19.396Z,23.15
2018-01-25T03:06:19.375Z,23.15
2018-01-25T03:07:19.349Z,23.10
2018-01-25T03:08:19.352Z,23.10
2018-01-25T03:09:19.308Z,23.05
2018-01-25T03:10:19.317Z,23.07
2018-01-25T03:11:19.267Z,22.97
2018-01-25T03:12:19.267Z,23.02
2018-01-25T03:13:19.238Z,23.02
2018-01-25T03:14:19.237Z,23.00
2018-01-25T03:15:19.201Z,23.00
2018-01-25T03:16:19.191Z,22.92
2018-01-25T03:17:19.156Z,22.90
2018-01-25T03:18:19.146Z,22.94
2018-01-25T03:19:19.129Z,22.92
2018-01-25T03:20:19.116Z,23.02
2018-01-25T03:21:19.094Z,23.01
2018-01-25T03:22:19.071Z,23.00
2018-01-25T03:23:19.083Z,22.88
2018-01-25T03:24:19.035Z,22.92
2018-01-25T03:25:19.020Z,22.90
2018-01-25T03:26:19.000Z,22.90
2018-01-25T03:27:19.014Z,22.86
2018-01-25T03:28:18.994Z,22.83
2018-01-25T03:29:18.948Z,22.83
2018-01-25T03:30:18.943Z,22.76
2018-01-25T03:31:18.917Z,22.76
2018-01-25T03:32:19.453Z,22.73
2018-01-25T03:33:18.870Z,22.77
2018-01-25T03:34:18.865Z,22.73
2018-01-25T03:35:18.849Z,22.70
2018-01-25T03:36:18.842Z,22.64
2018-01-25T03:37:18.797Z,22.64
2018-01-25T03:38:18.782Z,22.58
2018-01-25T03:39:18.787Z,22.54
2018-01-25T03:40:18.770Z,22.51
2018-01-25T03:41:18.726Z,22.52
2018-01-25T03:42:18.719Z,22.57
2018-01-25T03:43:18.690Z,22.51
2018-01-25T03:44:18.670Z,22.54
2018-01-25T03:45:18.649Z,22.43
2018-01-25T03:46:18.633Z,22.51
2018-01-25T03:47:18.612Z,22.42
2018-01-25T03:48:18.592Z,22.42
2018-01-25T03:49:18.599Z,22.43
2018-01-25T03:50:18.585Z,22.43
2018-01-25T03:51:18.562Z,22.35
2018-01-25T03:52:18.517Z,22.33
2018-01-25T03:53:18.514Z,22.35
2018-01-25T03:54:18.483Z,22.35
2018-01-25T03:55:18.475Z,22.31
2018-01-25T03:56:18.458Z,22.22
2018-01-25T03:57:18.452Z,22.21
2018-01-25T03:58:18.410Z,22.18
2018-01-25T03:59:18.417Z,22.22
2018-01-25T04:00:18.368Z,22.15
2018-01-25T04:01:18.356Z,22.09
2018-01-25T04:02:18.332Z,22.12
2018-01-25T04:03:18.328Z,22.05
2018-01-25T04:04:18.301Z,22.15
2018-01-25T04:05:18.271Z,22.15
2018-01-25T04:06:18.282Z,22.20
2018-01-25T04:07:18.239Z,22.22
2018-01-25T04:08:18.225Z,22.10
2018-01-25T04:09:18.207Z,22.05
2018-01-25T04:10:18.207Z,22.09
2018-01-25T04:11:18.171Z,22.09
2018-01-25T04:12:18.142Z,22.07
2018-01-25T04:13:18.123Z,22.02
2018-01-25T04:14:18.113Z,22.00
2018-01-25T04:15:18.092Z,22.05
2018-01-25T04:16:18.103Z,22.02
2018-01-25T04:17:18.082Z,22.05
2018-01-25T04:18:18.035Z,22.06
2018-01-25T04:19:18.007Z,22.05
2018-01-25T04:20:18.000Z,22.00
2018-01-25T04:21:18.002Z,21.96
2018-01-25T04:22:17.968Z,21.92
2018-01-25T04:23:17.939Z,21.91
2018-01-25T04:24:17.920Z,21.84
2018-01-25T04:25:17.910Z,21.83
2018-01-25T04:26:17.880Z,21.90
2018-01-25T04:27:17.861Z,21.88
2018-01-25T04:28:17.870Z,21.98
2018-01-25T04:29:17.823Z,22.00
2018-01-25T04:30:17.813Z,22.02
2018-01-25T04:31:17.789Z,21.99
2018-01-25T04:32:17.793Z,22.02
2018-01-25T04:33:17.747Z,21.98
2018-01-25T04:34:17.745Z,22.02
2018-01-25T04:35:17.723Z,22.00
2018-01-25T04:36:17.698Z,21.99
2018-01-25T04:37:17.697Z,22.06
2018-01-25T04:38:17.658Z,22.02
2018-01-25T04:39:17.643Z,21.98
2018-01-25T04:40:17.644Z,21.96
2018-01-25T04:41:17.625Z,21.91
2018-01-25T04:42:17.582Z,21.80
2018-01-25T04:43:17.588Z,21.82
2018-01-25T04:44:17.543Z,21.83
2018-01-25T04:45:17.519Z,21.84
2018-01-25T04:46:17.510Z,21.90
2018-01-25T04:47:17.517Z,21.83
2018-01-25T04:48:17.467Z,21.77
2018-01-25T04:49:17.460Z,21.67
2018-01-25T04:50:17.443Z,21.71
2018-01-25T04:51:17.408Z,21.72
2018-01-25T04:52:17.421Z,21.69
2018-01-25T04:53:17.396Z,21.68
2018-01-25T04:54:17.378Z,21.64
2018-01-25T04:55:17.344Z,21.61
2018-01-25T04:56:17.317Z,21.62
2018-01-25T04:57:17.323Z,21.67
2018-01-25T04:58:17.271Z,21.74
2018-01-25T04:59:17.287Z,21.67
2018-01-25T05:00:17.264Z,21.64
2018-01-25T05:01:17.244Z,21.67
2018-01-25T05:02:17.220Z,21.65
2018-01-25T05:03:17.182Z,21.56
2018-01-25T05:04:17.165Z,21.50
2018-01-25T05:05:17.157Z,21.56
2018-01-25T05:06:17.152Z,21.59
2018-01-25T05:07:17.121Z,21.54
2018-01-25T05:08:17.116Z,21.56
2018-01-25T05:09:17.072Z,21.58
2018-01-25T05:10:17.076Z,21.62
2018-01-25T05:11:17.035Z,21.54
2018-01-25T05:12:17.037Z,21.47
2018-01-25T05:13:16.990Z,21.54
2018-01-25T05:14:16.978Z,21.49
2018-01-25T05:15:16.959Z,21.62
2018-01-25T05:16:16.965Z,21.54
2018-01-25T05:17:16.925Z,21.47
2018-01-25T05:18:16.911Z,21.43
2018-01-25T05:19:16.880Z,21.49
2018-01-25T05:20:16.873Z,21.53
2018-01-25T05:21:16.855Z,21.50
2018-01-25T05:22:16.859Z,21.44
2018-01-25T05:23:16.830Z,21.46
2018-01-25T05:24:16.822Z,21.42
2018-01-25T05:25:16.771Z,21.49
2018-01-25T05:26:16.791Z,21.46
2018-01-25T05:27:16.809Z,21.46
2018-01-25T05:28:16.753Z,21.44
2018-01-25T05:29:16.689Z,21.44
2018-01-25T05:30:16.697Z,21.42
2018-01-25T05:31:16.652Z,21.38
2018-01-25T05:32:16.632Z,21.37
2018-01-25T05:33:16.613Z,21.42
2018-01-25T05:34:16.605Z,21.35
2018-01-25T05:35:16.580Z,21.38
2018-01-25T05:36:16.555Z,21.38
2018-01-25T05:37:16.566Z,21.37
2018-01-25T05:38:16.518Z,21.35
2018-01-25T05:39:16.531Z,21.38
2018-01-25T05:40:16.510Z,21.35
2018-01-25T05:41:16.473Z,21.38
2018-01-25T05:42:16.442Z,21.38
2018-01-25T05:43:16.449Z,21.24
2018-01-25T05:44:16.403Z,21.25
2018-01-25T05:45:16.389Z,21.21
2018-01-25T05:46:16.383Z,21.27
2018-01-25T05:47:16.344Z,21.22
2018-01-25T05:48:16.336Z,21.27
2018-01-25T05:49:16.338Z,21.27
2018-01-25T05:50:16.315Z,21.27
2018-01-25T05:51:16.296Z,21.27
2018-01-25T05:52:16.281Z,21.34
2018-01-25T05:53:16.258Z,21.24
2018-01-25T05:54:16.222Z,21.27
2018-01-25T05:55:16.224Z,21.27
2018-01-25T05:56:16.172Z,21.21
2018-01-25T05:57:16.182Z,21.27
2018-01-25T05:58:16.146Z,21.25
2018-01-25T05:59:16.145Z,21.24
2018-01-25T06:00:16.098Z,21.17
2018-01-25T06:01:16.073Z,21.24
2018-01-25T06:02:16.105Z,21.09
2018-01-25T06:03:16.042Z,21.12
2018-01-25T06:04:16.019Z,21.14
2018-01-25T06:05:16.003Z,21.09
2018-01-25T06:06:16.012Z,21.14
2018-01-25T06:07:15.974Z,21.09
2018-01-25T06:08:15.946Z,21.07
2018-01-25T06:09:15.937Z,21.10
2018-01-25T06:10:15.911Z,21.10
2018-01-25T06:11:15.897Z,21.07
2018-01-25T06:12:15.895Z,21.12
2018-01-25T06:13:15.847Z,21.10
2018-01-25T06:14:15.828Z,21.13
2018-01-25T06:15:15.812Z,21.16
2018-01-25T06:16:15.805Z,21.09
2018-01-25T06:17:15.789Z,21.10
2018-01-25T06:18:15.780Z,21.07
2018-01-25T06:19:15.749Z,21.14
2018-01-25T06:20:15.716Z,21.12
2018-01-25T06:21:15.722Z,21.07
2018-01-25T06:22:15.704Z,21.07
2018-01-25T06:23:15.686Z,21.12
2018-01-25T06:24:15.669Z,21.19
2018-01-25T06:25:15.645Z,21.10
2018-01-25T06:26:15.614Z,20.99
2018-01-25T06:27:15.609Z,21.10
2018-01-25T06:28:15.571Z,21.06
2018-01-25T06:29:15.544Z,21.12
2018-01-25T06:30:15.525Z,21.07
2018-01-25T06:31:15.504Z,21.07
2018-01-25T06:32:15.485Z,21.07
2018-01-25T06:33:15.475Z,21.12
2018-01-25T06:34:15.456Z,21.12
2018-01-25T06:35:15.430Z,21.01
2018-01-25T06:36:15.421Z,21.09
2018-01-25T06:37:15.388Z,21.06
2018-01-25T06:38:15.385Z,21.13
2018-01-25T06:39:15.361Z,21.13
2018-01-25T06:40:15.381Z,21.07
2018-01-25T06:41:15.342Z,21.10
2018-01-25T06:42:15.320Z,21.06
2018-01-25T06:43:15.305Z,21.10
2018-01-25T06:44:15.281Z,21.09
2018-01-25T06:45:15.240Z,21.07
2018-01-25T06:46:15.212Z,21.07
2018-01-25T06:47:15.758Z,21.04
2018-01-25T06:48:15.211Z,21.07
2018-01-25T06:49:15.186Z,21.17
2018-01-25T06:50:15.167Z,21.04
2018-01-25T06:51:15.128Z,21.13
2018-01-25T06:52:15.106Z,21.13
2018-01-25T06:53:15.086Z,21.12
2018-01-25T06:54:15.071Z,21.12
2018-01-25T06:55:15.045Z,21.14
2018-01-25T06:56:15.033Z,21.07
2018-01-25T06:57:15.011Z,21.10
2018-01-25T06:58:14.989Z,21.10
2018-01-25T06:59:14.972Z,21.07
2018-01-25T07:00:14.948Z,21.04
2018-01-25T07:01:14.932Z,21.12
2018-01-25T07:02:14.911Z,21.10
2018-01-25T07:03:14.892Z,21.14
2018-01-25T07:04:14.900Z,21.06
2018-01-25T07:05:14.852Z,21.10
2018-01-25T07:06:14.867Z,21.09
2018-01-25T07:07:14.820Z,21.09
2018-01-25T07:08:14.796Z,21.06
2018-01-25T07:09:14.795Z,21.07
2018-01-25T07:10:14.762Z,21.13
2018-01-25T07:11:14.754Z,21.14
2018-01-25T07:12:14.780Z,21.13
2018-01-25T07:13:14.712Z,21.12
2018-01-25T07:14:14.684Z,21.17
2018-01-25T07:15:14.663Z,21.17
2018-01-25T07:16:14.643Z,21.10
2018-01-25T07:17:14.649Z,21.25
2018-01-25T07:18:14.604Z,21.12
2018-01-25T07:19:14.586Z,21.27
2018-01-25T07:20:14.596Z,21.21
2018-01-25T07:21:14.551Z,21.31
2018-01-25T07:22:14.534Z,21.29
2018-01-25T07:23:14.526Z,21.28
2018-01-25T07:24:14.506Z,21.28
2018-01-25T07:25:14.467Z,21.24
2018-01-25T07:26:14.479Z,21.24
2018-01-25T07:27:14.433Z,21.29
2018-01-25T07:28:14.414Z,21.31
2018-01-25T07:29:14.399Z,21.40
2018-01-25T07:30:14.380Z,21.40
2018-01-25T07:31:14.374Z,21.35
2018-01-25T07:32:14.359Z,21.35
2018-01-25T07:33:14.320Z,21.25
2018-01-25T07:34:14.298Z,21.28
2018-01-25T07:35:14.282Z,21.21
2018-01-25T07:36:14.288Z,21.31
2018-01-25T07:37:14.273Z,21.32
2018-01-25T07:38:14.254Z,21.21
2018-01-25T07:39:14.206Z,21.24
2018-01-25T07:40:14.195Z,21.28
2018-01-25T07:41:14.183Z,21.21
2018-01-25T07:42:14.152Z,21.25
2018-01-25T07:43:14.155Z,21.25
2018-01-25T07:44:14.117Z,21.21
2018-01-25T07:45:14.117Z,21.24
2018-01-25T07:46:14.077Z,21.24
2018-01-25T07:47:14.063Z,21.13
2018-01-25T07:48:14.042Z,21.13
2018-01-25T07:49:14.048Z,21.13
2018-01-25T07:50:14.013Z,21.12
2018-01-25T07:51:14.004Z,21.13
2018-01-25T07:52:13.960Z,21.13
2018-01-25T07:53:13.955Z,21.12
2018-01-25T07:54:13.920Z,21.03
2018-01-25T07:55:13.930Z,21.07
2018-01-25T07:56:13.910Z,21.14
2018-01-25T07:57:13.877Z,21.13
2018-01-25T07:58:13.857Z,21.07
2018-01-25T07:59:13.828Z,21.12
2018-01-25T08:00:13.805Z,21.13
2018-01-25T08:01:13.793Z,21.07
2018-01-25T08:02:13.793Z,21.06
2018-01-25T08:03:13.764Z,21.12
2018-01-25T08:04:13.757Z,21.07
2018-01-25T08:05:13.739Z,21.10
2018-01-25T08:06:13.717Z,21.09
2018-01-25T08:07:13.697Z,21.03
2018-01-25T08:08:13.649Z,21.06
2018-01-25T08:09:13.636Z,21.04
2018-01-25T08:10:13.613Z,20.99
2018-01-25T08:11:13.603Z,21.04
2018-01-25T08:12:13.584Z,20.99
2018-01-25T08:13:13.567Z,21.09
2018-01-25T08:14:13.549Z,21.04
2018-01-25T08:15:13.526Z,21.06
2018-01-25T08:16:13.510Z,21.03
2018-01-25T08:17:13.544Z,21.01
2018-01-25T08:18:13.474Z,21.03
2018-01-25T08:19:13.441Z,21.12
2018-01-25T08:20:13.421Z,21.04
2018-01-25T08:21:13.405Z,21.04
2018-01-25T08:22:13.383Z,20.99
2018-01-25T08:23:13.376Z,21.09
2018-01-25T08:24:13.347Z,21.04
2018-01-25T08:25:13.353Z,21.10
2018-01-25T08:26:13.304Z,21.07
2018-01-25T08:27:13.290Z,20.95
2018-01-25T08:28:13.271Z,20.99
2018-01-25T08:29:13.277Z,20.97
2018-01-25T08:30:13.241Z,20.98
2018-01-25T08:31:13.213Z,21.03
2018-01-25T08:32:13.193Z,20.98
2018-01-25T08:33:13.171Z,20.94
2018-01-25T08:34:13.152Z,20.91
2018-01-25T08:35:13.134Z,20.94
2018-01-25T08:36:13.141Z,20.95
2018-01-25T08:38:56.829Z,20.88
2018-01-25T08:39:56.822Z,20.88
2018-01-25T08:40:56.779Z,20.92
2018-01-25T08:41:56.791Z,20.88
2018-01-25T08:42:57.318Z,20.95
2018-01-25T08:43:56.749Z,20.92
2018-01-25T08:44:56.735Z,20.95
2018-01-25T08:45:56.714Z,20.88
2018-01-25T08:46:56.663Z,20.97
2018-01-25T08:47:56.647Z,20.95
2018-01-25T08:48:56.657Z,21.09
2018-01-25T08:49:56.635Z,20.99
2018-01-25T08:50:56.619Z,21.07
2018-01-25T08:51:56.572Z,21.13
2018-01-25T08:52:56.577Z,21.06
2018-01-25T08:53:56.552Z,21.09
2018-01-25T08:54:56.514Z,21.07
2018-01-25T08:55:56.520Z,21.07
2018-01-25T08:56:56.503Z,21.12
2018-01-25T08:57:56.455Z,21.13
2018-01-25T08:58:56.466Z,21.14
2018-01-25T08:59:56.423Z,21.09
2018-01-25T09:00:56.394Z,21.06
2018-01-25T09:01:56.407Z,21.17
2018-01-25T09:02:56.388Z,21.17
2018-01-25T09:03:56.351Z,21.17
2018-01-25T09:04:56.323Z,21.28
2018-01-25T09:05:56.335Z,21.19
2018-01-25T09:06:56.283Z,21.28
2018-01-25T09:07:56.263Z,21.24
2018-01-25T09:08:56.253Z,21.32
2018-01-25T09:09:56.246Z,21.35
2018-01-25T09:10:56.236Z,21.35
2018-01-25T09:11:56.198Z,21.34
2018-01-25T09:12:56.194Z,21.35
2018-01-25T09:13:56.180Z,21.38
2018-01-25T09:14:56.132Z,21.38
2018-01-25T09:15:56.112Z,21.44
2018-01-25T09:16:56.119Z,21.42
2018-01-25T09:17:56.073Z,21.42
2018-01-25T09:18:56.068Z,21.53
2018-01-25T09:19:56.046Z,21.50
2018-01-25T09:20:56.012Z,21.54
2018-01-25T09:21:56.009Z,21.46
2018-01-25T09:22:55.977Z,21.46
2018-01-25T09:23:55.971Z,21.61
2018-01-25T09:24:55.940Z,21.54
2018-01-25T09:25:55.924Z,21.69
2018-01-25T09:26:55.905Z,21.72
2018-01-25T09:27:55.885Z,21.75
2018-01-25T09:28:55.864Z,21.79
2018-01-25T09:29:55.841Z,21.86
2018-01-25T09:30:55.843Z,21.84
2018-01-25T09:31:55.807Z,21.91
2018-01-25T09:32:55.818Z,21.82
2018-01-25T09:33:55.771Z,21.83
2018-01-25T09:34:55.753Z,21.88
2018-01-25T09:35:55.762Z,21.90
2018-01-25T09:36:55.728Z,21.99
2018-01-25T09:37:55.702Z,22.03
2018-01-25T09:38:55.708Z,22.06
2018-01-25T09:39:55.688Z,22.10
2018-01-25T09:40:55.656Z,22.05
2018-01-25T09:41:55.624Z,22.20
2018-01-25T09:42:55.609Z,22.18
2018-01-25T09:43:55.586Z,22.27
2018-01-25T09:44:55.574Z,22.24
2018-01-25T09:45:55.550Z,22.20
2018-01-25T09:46:55.557Z,22.25
2018-01-25T09:47:55.516Z,22.18
2018-01-25T09:48:55.495Z,22.21
2018-01-25T09:49:55.482Z,22.30
2018-01-25T09:50:55.455Z,22.25
2018-01-25T09:51:55.466Z,22.43
2018-01-25T09:52:55.450Z,22.49
2018-01-25T09:53:55.405Z,22.49
2018-01-25T09:54:55.415Z,22.49
2018-01-25T09:55:55.368Z,22.72
2018-01-25T09:56:55.350Z,23.00
2018-01-25T09:57:55.365Z,23.51
2018-01-25T09:58:55.344Z,23.83
2018-01-25T09:59:55.324Z,24.24
2018-01-25T10:00:55.281Z,24.64
2018-01-25T10:01:55.302Z,25.02
2018-01-25T10:02:55.274Z,25.28
2018-01-25T10:03:55.257Z,25.45
2018-01-25T10:04:55.240Z,25.50
2018-01-25T10:05:55.196Z,25.58
2018-01-25T10:06:55.209Z,25.61
2018-01-25T10:07:55.168Z,25.73
2018-01-25T10:08:55.178Z,25.91
2018-01-25T10:09:55.137Z,25.90
2018-01-25T10:10:55.121Z,25.67
2018-01-25T10:11:55.103Z,25.51
2018-01-25T10:12:55.091Z,25.73
2018-01-25T10:13:55.078Z,25.97
2018-01-25T10:14:55.068Z,26.44
2018-01-25T10:15:55.045Z,26.77
2018-01-25T10:16:55.035Z,27.09
2018-01-25T10:17:55.052Z,27.66
2018-01-25T10:18:55.033Z,27.88
2018-01-25T10:19:54.989Z,27.93
2018-01-25T10:20:55.008Z,27.93
2018-01-25T10:21:55.287Z,27.82
2018-01-25T10:22:54.976Z,27.69
2018-01-25T10:23:54.977Z,27.29
2018-01-25T10:24:54.926Z,26.76
2018-01-25T10:25:54.918Z,26.48
2018-01-25T10:26:54.919Z,26.26
2018-01-25T10:27:54.909Z,26.28
2018-01-25T10:28:54.870Z,26.23
2018-01-25T10:29:54.871Z,25.92
2018-01-25T10:30:54.873Z,25.76
2018-01-25T10:31:54.846Z,25.58
2018-01-25T10:32:54.842Z,25.60
2018-01-25T10:33:54.816Z,25.58
2018-01-25T10:34:54.818Z,25.50
2018-01-25T10:35:54.776Z,25.39
2018-01-25T10:36:54.801Z,25.46
2018-01-25T10:37:54.748Z,25.50
2018-01-25T10:38:54.741Z,25.51
2018-01-25T10:39:54.745Z,25.64
2018-01-25T10:40:54.734Z,25.61
2018-01-25T10:41:54.721Z,25.57
2018-01-25T10:42:54.709Z,25.54
2018-01-25T10:43:54.690Z,25.67
2018-01-25T10:44:54.683Z,25.80
2018-01-25T10:45:54.665Z,25.94
2018-01-25T10:46:54.625Z,25.97
2018-01-25T10:47:54.624Z,25.87
2018-01-25T10:48:54.596Z,25.80
2018-01-25T10:49:54.581Z,25.97
2018-01-25T10:50:54.566Z,26.18
2018-01-25T10:51:54.549Z,26.44
2018-01-25T10:52:54.544Z,26.58
2018-01-25T10:53:54.532Z,26.91
2018-01-25T10:54:54.541Z,27.32
2018-01-25T10:55:54.528Z,27.54
2018-01-25T10:56:54.492Z,27.97
2018-01-25T10:57:54.498Z,28.36
2018-01-25T10:58:54.493Z,28.54
2018-01-25T10:59:54.450Z,28.56
2018-01-25T11:00:54.436Z,28.34
2018-01-25T11:01:54.424Z,28.03
2018-01-25T11:02:54.414Z,27.77
2018-01-25T11:03:54.405Z,27.72
2018-01-25T11:04:54.415Z,27.62
2018-01-25T11:05:54.402Z,27.62
2018-01-25T11:06:54.393Z,27.60
2018-01-25T11:07:54.377Z,27.47
2018-01-25T11:08:54.364Z,27.29
2018-01-25T11:09:54.330Z,27.18
2018-01-25T11:10:54.315Z,27.13
2018-01-25T11:11:54.317Z,26.99
2018-01-25T11:12:54.308Z,26.97
2018-01-25T11:13:54.310Z,27.12
2018-01-25T11:14:54.292Z,27.17
2018-01-25T11:15:54.256Z,27.17
2018-01-25T11:16:54.273Z,27.36
2018-01-25T11:17:54.258Z,27.28
2018-01-25T11:18:54.219Z,27.32
2018-01-25T11:19:54.229Z,27.49
2018-01-25T11:20:54.203Z,27.43
2018-01-25T11:21:54.187Z,27.22
2018-01-25T11:22:54.170Z,27.09
2018-01-25T11:23:54.165Z,26.69
2018-01-25T11:24:54.156Z,26.50
2018-01-25T11:25:54.132Z,26.17
2018-01-25T11:26:54.121Z,26.17
2018-01-25T11:27:54.122Z,26.39
2018-01-25T11:28:54.095Z,26.70
2018-01-25T11:29:54.085Z,27.07
2018-01-25T11:30:54.073Z,27.46
2018-01-25T11:31:54.055Z,27.81
2018-01-25T11:32:54.045Z,27.75
2018-01-25T11:33:54.042Z,27.78
2018-01-25T11:34:54.020Z,27.88
2018-01-25T11:35:54.017Z,27.96
2018-01-25T11:36:53.996Z,28.15
2018-01-25T11:37:53.986Z,28.19
2018-01-25T11:38:53.987Z,27.99
2018-01-25T11:39:53.983Z,27.93
2018-01-25T11:40:53.966Z,27.69
2018-01-25T11:41:53.938Z,27.79
2018-01-25T11:42:53.935Z,27.90
2018-01-25T11:43:53.940Z,28.11
2018-01-25T11:44:53.937Z,28.34
2018-01-25T11:45:53.901Z,28.83
2018-01-25T11:46:53.889Z,29.33
2018-01-25T11:48:27.094Z,29.57
2018-01-25T11:48:53.872Z,29.45
2018-01-25T11:49:53.885Z,29.45
2018-01-25T11:50:53.878Z,29.31
2018-01-25T11:51:53.840Z,29.14
2018-01-25T11:52:53.839Z,29.14
2018-01-25T11:53:53.850Z,29.27
2018-01-25T11:54:53.814Z,29.55
2018-01-25T11:55:53.801Z,29.73
2018-01-25T11:56:53.822Z,30.02
2018-01-25T11:57:53.786Z,30.02
2018-01-25T11:58:53.802Z,29.85
2018-01-25T11:59:53.770Z,29.64
2018-01-25T12:00:53.758Z,28.85
2018-01-25T12:01:53.753Z,28.67
2018-01-25T12:02:53.768Z,28.76
2018-01-25T12:03:53.729Z,28.90
2018-01-25T12:04:53.719Z,29.51
2018-01-25T12:05:53.729Z,29.76
2018-01-25T12:06:53.735Z,29.94
2018-01-25T12:07:53.694Z,29.49
2018-01-25T12:08:53.699Z,29.43
2018-01-25T12:09:53.707Z,29.64
2018-01-25T12:10:53.699Z,29.83
2018-01-25T12:11:53.665Z,30.04
2018-01-25T12:12:54.215Z,30.31
2018-01-25T12:13:53.676Z,30.62
2018-01-25T12:14:53.644Z,30.55
2018-01-25T12:15:53.637Z,30.55
2018-01-25T12:16:53.629Z,30.53
2018-01-25T12:17:53.622Z,30.47
2018-01-25T12:18:53.610Z,30.20
2018-01-25T12:19:53.629Z,30.00
2018-01-25T12:20:53.616Z,29.89
2018-01-25T12:21:53.632Z,29.64
2018-01-25T12:22:53.586Z,29.51
2018-01-25T12:23:53.601Z,29.30
2018-01-25T12:24:53.569Z,29.24
2018-01-25T12:25:53.568Z,28.92
2018-01-25T12:26:53.563Z,28.68
2018-01-25T12:27:53.542Z,28.66
2018-01-25T12:28:53.542Z,28.64
2018-01-25T12:29:53.542Z,29.00
2018-01-25T12:30:53.546Z,29.51
2018-01-25T12:31:53.505Z,29.52
2018-01-25T12:32:53.525Z,29.19
2018-01-25T12:33:53.500Z,28.54
2018-01-25T12:34:53.509Z,28.33
2018-01-25T12:35:53.485Z,28.41
2018-01-25T12:36:53.489Z,28.98
2018-01-25T12:37:53.464Z,29.60
2018-01-25T12:38:53.441Z,29.79
2018-01-25T12:39:53.460Z,29.34
2018-01-25T12:40:53.449Z,28.81
2018-01-25T12:41:53.413Z,28.40
2018-01-25T12:42:53.405Z,28.48
2018-01-25T12:43:53.423Z,28.36
2018-01-25T12:44:53.382Z,28.39
2018-01-25T12:45:53.373Z,28.61
2018-01-25T12:46:53.363Z,28.85
2018-01-25T12:47:53.369Z,29.11
2018-01-25T12:48:53.346Z,28.92
2018-01-25T12:49:53.337Z,28.76
2018-01-25T12:50:53.334Z,28.67
2018-01-25T12:51:53.329Z,28.29
2018-01-25T12:52:53.306Z,27.88
2018-01-25T12:53:53.299Z,27.60